createdAt,value
2023-01-13T00:00:03.828Z,938.68
2023-01-13T00:00:13.880Z,938.73
2023-01-13T00:00:23.859Z,938.60
2023-01-13T00:00:33.869Z,938.56
2023-01-13T00:00:43.850Z,938.61
2023-01-13T00:00:53.839Z,938.59
2023-01-13T00:01:03.830Z,938.64
2023-01-13T00:01:14.838Z,938.63
2023-01-13T00:01:23.848Z,938.70
2023-01-13T00:01:33.834Z,938.62
2023-01-13T00:01:43.833Z,938.44
2023-01-13T00:01:53.840Z,938.61
2023-01-13T00:02:03.872Z,938.59
2023-01-13T00:02:13.864Z,938.65
2023-01-13T00:02:23.904Z,938.59
2023-01-13T00:02:33.881Z,938.62
2023-01-13T00:02:43.905Z,938.60
2023-01-13T00:02:53.840Z,938.60
2023-01-13T00:03:03.842Z,938.54
2023-01-13T00:03:13.842Z,938.67
2023-01-13T00:03:23.841Z,938.47
2023-01-13T00:03:33.837Z,938.59
2023-01-13T00:03:43.838Z,938.44
2023-01-13T00:03:53.853Z,938.49
2023-01-13T00:04:03.857Z,938.57
2023-01-13T00:04:13.857Z,938.61
2023-01-13T00:04:23.894Z,938.52
2023-01-13T00:04:33.864Z,938.54
2023-01-13T00:04:43.869Z,938.57
2023-01-13T00:04:53.959Z,938.59
2023-01-13T00:05:03.924Z,938.61
2023-01-13T00:05:13.853Z,938.64
2023-01-13T00:05:23.877Z,938.64
2023-01-13T00:05:33.850Z,938.53
2023-01-13T00:05:43.857Z,938.55
2023-01-13T00:05:53.848Z,938.54
2023-01-13T00:06:03.862Z,938.52
2023-01-13T00:06:13.865Z,938.60
2023-01-13T00:06:23.851Z,938.60
2023-01-13T00:06:33.853Z,938.60
2023-01-13T00:06:43.881Z,938.58
2023-01-13T00:06:53.864Z,938.51
2023-01-13T00:07:03.857Z,938.55
2023-01-13T00:07:13.860Z,938.50
2023-01-13T00:07:23.854Z,938.53
2023-01-13T00:07:33.861Z,938.62
2023-01-13T00:07:43.864Z,938.58
2023-01-13T00:07:53.863Z,938.60
2023-01-13T00:08:03.865Z,938.52
2023-01-13T00:08:13.938Z,938.53
2023-01-13T00:08:23.852Z,938.52
2023-01-13T00:08:33.867Z,938.45
2023-01-13T00:08:43.864Z,938.54
2023-01-13T00:08:53.859Z,938.47
2023-01-13T00:09:03.863Z,938.53
2023-01-13T00:09:13.861Z,938.55
2023-01-13T00:09:23.873Z,938.57
2023-01-13T00:09:33.866Z,938.51
2023-01-13T00:09:43.867Z,938.53
2023-01-13T00:09:53.880Z,938.57
2023-01-13T00:10:03.862Z,938.54
2023-01-13T00:10:13.872Z,938.59
2023-01-13T00:10:23.873Z,938.55
2023-01-13T00:10:33.925Z,938.56
2023-01-13T00:10:43.871Z,938.55
2023-01-13T00:10:53.885Z,938.59
2023-01-13T00:11:03.871Z,938.52
2023-01-13T00:11:13.874Z,938.57
2023-01-13T00:11:23.879Z,938.63
2023-01-13T00:11:33.873Z,938.67
2023-01-13T00:11:43.880Z,938.62
2023-01-13T00:11:53.876Z,938.56
2023-01-13T00:12:03.875Z,938.41
2023-01-13T00:12:13.888Z,938.51
2023-01-13T00:12:23.883Z,938.61
2023-01-13T00:12:33.887Z,938.54
2023-01-13T00:12:43.887Z,938.32
2023-01-13T00:12:53.873Z,938.57
2023-01-13T00:13:03.882Z,938.52
2023-01-13T00:13:13.883Z,938.40
2023-01-13T00:13:23.888Z,938.55
2023-01-13T00:13:33.884Z,938.57
2023-01-13T00:13:43.909Z,938.53
2023-01-13T00:13:53.877Z,938.58
2023-01-13T00:14:03.889Z,938.59
2023-01-13T00:14:13.895Z,938.60
2023-01-13T00:14:23.883Z,938.61
2023-01-13T00:14:33.889Z,938.56
2023-01-13T00:14:43.888Z,938.61
2023-01-13T00:14:53.892Z,938.61
2023-01-13T00:15:03.888Z,938.55
2023-01-13T00:15:13.913Z,938.56
2023-01-13T00:15:23.892Z,938.40
2023-01-13T00:15:33.910Z,938.62
2023-01-13T00:15:43.928Z,938.52
2023-01-13T00:15:53.924Z,938.50
2023-01-13T00:16:03.906Z,938.46
2023-01-13T00:16:13.944Z,938.54
2023-01-13T00:16:23.943Z,938.58
2023-01-13T00:16:33.890Z,938.54
2023-01-13T00:16:43.899Z,938.52
2023-01-13T00:16:53.894Z,938.52
2023-01-13T00:17:03.893Z,938.57
2023-01-13T00:17:13.912Z,938.52
2023-01-13T00:17:23.896Z,938.57
2023-01-13T00:17:33.913Z,938.47
2023-01-13T00:17:43.900Z,938.51
2023-01-13T00:17:53.896Z,938.52
2023-01-13T00:18:03.904Z,938.48
2023-01-13T00:18:13.911Z,938.56
2023-01-13T00:18:23.899Z,938.40
2023-01-13T00:18:33.930Z,938.48
2023-01-13T00:18:43.901Z,938.54
2023-01-13T00:18:53.918Z,938.42
2023-01-13T00:19:03.901Z,938.48
2023-01-13T00:19:13.901Z,938.45
2023-01-13T00:19:23.906Z,938.44
2023-01-13T00:19:33.955Z,938.53
2023-01-13T00:19:43.918Z,938.48
2023-01-13T00:19:53.930Z,938.52
2023-01-13T00:20:03.902Z,938.42
2023-01-13T00:20:13.905Z,938.46
2023-01-13T00:20:23.924Z,938.53
2023-01-13T00:20:34.831Z,938.48
2023-01-13T00:20:43.925Z,938.53
2023-01-13T00:20:54.817Z,938.55
2023-01-13T00:21:03.921Z,938.41
2023-01-13T00:21:13.941Z,938.45
2023-01-13T00:21:23.930Z,938.49
2023-01-13T00:21:33.943Z,938.50
2023-01-13T00:21:43.906Z,938.50
2023-01-13T00:21:53.913Z,938.50
2023-01-13T00:22:03.907Z,938.55
2023-01-13T00:22:13.937Z,938.45
2023-01-13T00:22:23.911Z,938.45
2023-01-13T00:22:33.934Z,938.34
2023-01-13T00:22:43.925Z,938.44
2023-01-13T00:22:53.985Z,938.47
2023-01-13T00:23:03.911Z,938.50
2023-01-13T00:23:13.935Z,938.53
2023-01-13T00:23:23.922Z,938.38
2023-01-13T00:23:33.967Z,938.44
2023-01-13T00:23:43.938Z,938.46
2023-01-13T00:23:54.826Z,938.46
2023-01-13T00:24:03.916Z,938.50
2023-01-13T00:24:15.844Z,938.55
2023-01-13T00:24:23.930Z,938.57
2023-01-13T00:24:33.942Z,938.43
2023-01-13T00:24:43.955Z,938.48
2023-01-13T00:24:53.923Z,938.47
2023-01-13T00:25:04.832Z,938.49
2023-01-13T00:25:15.859Z,938.42
2023-01-13T00:25:23.930Z,938.42
2023-01-13T00:25:33.973Z,938.49
2023-01-13T00:25:43.923Z,938.50
2023-01-13T00:25:54.824Z,938.50
2023-01-13T00:26:03.917Z,938.49
2023-01-13T00:26:13.939Z,938.55
2023-01-13T00:26:23.948Z,938.49
2023-01-13T00:26:33.932Z,938.43
2023-01-13T00:26:43.935Z,938.50
2023-01-13T00:26:53.941Z,938.56
2023-01-13T00:27:03.928Z,938.51
2023-01-13T00:27:13.930Z,938.50
2023-01-13T00:27:23.945Z,938.53
2023-01-13T00:27:33.984Z,938.29
2023-01-13T00:27:55.848Z,938.47
2023-01-13T00:27:56.200Z,938.52
2023-01-13T00:28:06.213Z,938.59
2023-01-13T00:28:16.191Z,938.52
2023-01-13T00:28:26.201Z,938.54
2023-01-13T00:28:36.200Z,938.58
2023-01-13T00:28:46.198Z,938.47
2023-01-13T00:28:56.201Z,938.55
2023-01-13T00:29:06.197Z,938.54
2023-01-13T00:29:16.205Z,938.45
2023-01-13T00:29:26.212Z,938.53
2023-01-13T00:29:36.201Z,938.62
2023-01-13T00:29:46.200Z,938.53
2023-01-13T00:29:56.199Z,938.35
2023-01-13T00:30:06.201Z,938.53
2023-01-13T00:30:16.208Z,938.50
2023-01-13T00:30:26.205Z,938.52
2023-01-13T00:30:36.199Z,938.47
2023-01-13T00:30:46.201Z,938.45
2023-01-13T00:30:56.411Z,938.24
2023-01-13T00:31:06.318Z,938.45
2023-01-13T00:31:16.343Z,938.34
2023-01-13T00:31:26.260Z,938.50
2023-01-13T00:31:36.283Z,938.44
2023-01-13T00:31:46.206Z,938.44
2023-01-13T00:31:56.228Z,938.52
2023-01-13T00:32:06.209Z,938.43
2023-01-13T00:32:16.207Z,938.45
2023-01-13T00:32:26.223Z,938.49
2023-01-13T00:32:36.220Z,938.45
2023-01-13T00:32:46.200Z,938.45
2023-01-13T00:32:56.208Z,938.43
2023-01-13T00:33:06.206Z,938.39
2023-01-13T00:33:16.212Z,938.46
2023-01-13T00:33:26.223Z,938.47
2023-01-13T00:33:36.211Z,938.50
2023-01-13T00:33:46.218Z,938.50
2023-01-13T00:33:56.228Z,938.48
2023-01-13T00:34:06.217Z,938.46
2023-01-13T00:34:16.227Z,938.46
2023-01-13T00:34:26.224Z,938.49
2023-01-13T00:34:36.213Z,938.48
2023-01-13T00:34:46.220Z,938.56
2023-01-13T00:34:56.226Z,938.52
2023-01-13T00:35:06.215Z,938.36
2023-01-13T00:35:16.219Z,938.39
2023-01-13T00:35:26.213Z,938.41
2023-01-13T00:35:36.227Z,938.40
2023-01-13T00:35:46.230Z,938.44
2023-01-13T00:35:56.217Z,938.39
2023-01-13T00:36:06.257Z,938.48
2023-01-13T00:36:16.228Z,938.47
2023-01-13T00:36:26.235Z,938.42
2023-01-13T00:36:36.238Z,938.39
2023-01-13T00:36:46.243Z,938.41
2023-01-13T00:36:56.233Z,938.40
2023-01-13T00:37:06.237Z,938.48
2023-01-13T00:37:16.232Z,938.42
2023-01-13T00:37:26.222Z,938.41
2023-01-13T00:37:36.844Z,938.43
2023-01-13T00:37:46.236Z,938.44
2023-01-13T00:37:56.237Z,938.41
2023-01-13T00:38:06.227Z,938.32
2023-01-13T00:38:16.233Z,938.44
2023-01-13T00:38:26.234Z,938.47
2023-01-13T00:38:36.328Z,938.39
2023-01-13T00:38:46.239Z,938.40
2023-01-13T00:38:56.236Z,938.36
2023-01-13T00:39:06.235Z,938.34
2023-01-13T00:39:16.244Z,938.44
2023-01-13T00:39:26.241Z,938.40
2023-01-13T00:39:36.235Z,938.49
2023-01-13T00:39:46.256Z,938.37
2023-01-13T00:39:56.245Z,938.36
2023-01-13T00:40:06.246Z,938.37
2023-01-13T00:40:16.238Z,938.44
2023-01-13T00:40:26.246Z,938.46
2023-01-13T00:40:36.256Z,938.58
2023-01-13T00:40:46.246Z,938.36
2023-01-13T00:40:56.251Z,938.32
2023-01-13T00:41:06.242Z,938.30
2023-01-13T00:41:16.259Z,938.43
2023-01-13T00:41:26.252Z,938.41
2023-01-13T00:41:36.247Z,938.32
2023-01-13T00:41:46.254Z,938.26
2023-01-13T00:41:56.259Z,938.38
2023-01-13T00:42:06.248Z,938.39
2023-01-13T00:42:16.261Z,938.52
2023-01-13T00:42:26.254Z,938.35
2023-01-13T00:42:36.256Z,938.33
2023-01-13T00:42:46.266Z,938.48
2023-01-13T00:42:56.254Z,938.30
2023-01-13T00:43:06.255Z,938.42
2023-01-13T00:43:16.318Z,938.40
2023-01-13T00:43:26.262Z,938.41
2023-01-13T00:43:36.262Z,938.42
2023-01-13T00:43:46.266Z,938.42
2023-01-13T00:43:56.269Z,938.39
2023-01-13T00:44:06.267Z,938.33
2023-01-13T00:44:16.269Z,938.41
2023-01-13T00:44:26.279Z,938.44
2023-01-13T00:44:36.267Z,938.43
2023-01-13T00:44:46.272Z,938.42
2023-01-13T00:44:56.285Z,938.27
2023-01-13T00:45:06.265Z,938.41
2023-01-13T00:45:16.275Z,938.35
2023-01-13T00:45:26.273Z,938.38
2023-01-13T00:45:36.267Z,938.49
2023-01-13T00:45:46.279Z,938.30
2023-01-13T00:45:56.273Z,938.40
2023-01-13T00:46:06.409Z,938.40
2023-01-13T00:46:16.300Z,938.42
2023-01-13T00:46:26.296Z,938.42
2023-01-13T00:46:36.363Z,938.39
2023-01-13T00:46:46.317Z,938.39
2023-01-13T00:46:56.270Z,938.29
2023-01-13T00:47:06.271Z,938.31
2023-01-13T00:47:16.274Z,938.19
2023-01-13T00:47:26.290Z,938.37
2023-01-13T00:47:36.289Z,938.33
2023-01-13T00:47:46.288Z,938.33
2023-01-13T00:47:56.278Z,938.28
2023-01-13T00:48:06.293Z,938.38
2023-01-13T00:48:16.332Z,938.41
2023-01-13T00:48:26.288Z,938.38
2023-01-13T00:48:36.282Z,938.49
2023-01-13T00:48:46.279Z,938.33
2023-01-13T00:48:56.286Z,938.35
2023-01-13T00:49:06.290Z,938.37
2023-01-13T00:49:16.289Z,938.31
2023-01-13T00:49:26.288Z,938.37
2023-01-13T00:49:36.293Z,938.35
2023-01-13T00:49:46.303Z,938.35
2023-01-13T00:49:56.304Z,938.25
2023-01-13T00:50:06.302Z,938.21
2023-01-13T00:50:16.287Z,938.24
2023-01-13T00:50:26.286Z,938.29
2023-01-13T00:50:36.296Z,938.20
2023-01-13T00:50:46.288Z,938.20
2023-01-13T00:50:56.322Z,938.29
2023-01-13T00:51:06.294Z,938.33
2023-01-13T00:51:16.290Z,938.34
2023-01-13T00:51:26.302Z,938.25
2023-01-13T00:51:36.292Z,938.28
2023-01-13T00:51:46.297Z,938.27
2023-01-13T00:51:56.305Z,938.26
2023-01-13T00:52:06.293Z,938.27
2023-01-13T00:52:16.302Z,938.29
2023-01-13T00:52:26.299Z,938.20
2023-01-13T00:52:36.316Z,938.18
2023-01-13T00:52:46.310Z,938.27
2023-01-13T00:52:56.315Z,938.34
2023-01-13T00:53:06.305Z,938.25
2023-01-13T00:53:16.335Z,938.30
2023-01-13T00:53:26.298Z,938.25
2023-01-13T00:53:36.311Z,938.24
2023-01-13T00:53:46.307Z,938.32
2023-01-13T00:53:56.335Z,938.25
2023-01-13T00:54:06.308Z,938.31
2023-01-13T00:54:16.305Z,938.31
2023-01-13T00:54:26.342Z,938.28
2023-01-13T00:54:36.314Z,938.23
2023-01-13T00:54:46.311Z,938.21
2023-01-13T00:54:56.302Z,938.20
2023-01-13T00:55:06.323Z,938.16
2023-01-13T00:55:16.319Z,938.21
2023-01-13T00:55:26.327Z,938.37
2023-01-13T00:55:36.313Z,938.26
2023-01-13T00:55:46.318Z,938.36
2023-01-13T00:55:56.331Z,938.27
2023-01-13T00:56:06.325Z,938.27
2023-01-13T00:56:18.138Z,938.30
2023-01-13T00:56:39.736Z,938.32
2023-01-13T00:56:40.570Z,938.25
2023-01-13T00:56:46.328Z,938.27
2023-01-13T00:56:56.322Z,938.35
2023-01-13T00:57:06.322Z,938.39
2023-01-13T00:57:16.349Z,938.32
2023-01-13T00:57:26.329Z,938.39
2023-01-13T00:57:36.335Z,938.23
2023-01-13T00:57:46.353Z,938.26
2023-01-13T00:57:56.340Z,938.28
2023-01-13T00:58:06.324Z,938.26
2023-01-13T00:58:16.359Z,938.25
2023-01-13T00:58:26.328Z,938.30
2023-01-13T00:58:36.339Z,938.20
2023-01-13T00:58:46.336Z,938.29
2023-01-13T00:58:56.334Z,938.27
2023-01-13T00:59:06.353Z,938.33
2023-01-13T00:59:16.347Z,938.32
2023-01-13T00:59:26.340Z,938.29
2023-01-13T00:59:36.336Z,938.37
2023-01-13T00:59:48.003Z,938.33
2023-01-13T00:59:56.344Z,938.32
2023-01-13T01:00:06.350Z,938.19
2023-01-13T01:00:16.340Z,938.32
2023-01-13T01:00:26.338Z,938.32
2023-01-13T01:00:36.384Z,938.27
2023-01-13T01:00:46.373Z,938.32
2023-01-13T01:00:56.509Z,938.26
2023-01-13T01:01:06.509Z,938.27
2023-01-13T01:01:16.528Z,938.24
2023-01-13T01:01:26.575Z,938.27
2023-01-13T01:01:36.581Z,938.28
2023-01-13T01:01:46.510Z,938.25
2023-01-13T01:01:56.393Z,938.17
2023-01-13T01:02:06.503Z,938.20
2023-01-13T01:02:16.497Z,938.21
2023-01-13T01:02:26.405Z,938.15
2023-01-13T01:02:36.430Z,938.20
2023-01-13T01:02:46.451Z,938.24
2023-01-13T01:02:56.351Z,938.10
2023-01-13T01:03:06.355Z,938.13
2023-01-13T01:03:16.355Z,938.23
2023-01-13T01:03:26.362Z,938.24
2023-01-13T01:03:36.395Z,938.25
2023-01-13T01:03:46.351Z,938.23
2023-01-13T01:03:56.352Z,938.25
2023-01-13T01:04:06.371Z,938.20
2023-01-13T01:04:16.358Z,938.17
2023-01-13T01:04:26.365Z,938.24
2023-01-13T01:04:36.373Z,938.07
2023-01-13T01:04:46.354Z,938.24
2023-01-13T01:04:56.352Z,938.18
2023-01-13T01:05:06.370Z,938.18
2023-01-13T01:05:16.377Z,938.19
2023-01-13T01:05:26.360Z,938.16
2023-01-13T01:05:36.364Z,938.13
2023-01-13T01:05:46.366Z,938.12
2023-01-13T01:05:56.368Z,938.17
2023-01-13T01:06:06.363Z,938.11
2023-01-13T01:06:16.374Z,938.02
2023-01-13T01:06:26.382Z,938.15
2023-01-13T01:06:36.359Z,938.18
2023-01-13T01:06:46.369Z,938.16
2023-01-13T01:06:56.368Z,938.13
2023-01-13T01:07:06.376Z,938.17
2023-01-13T01:07:16.366Z,938.13
2023-01-13T01:07:26.373Z,938.18
2023-01-13T01:07:36.370Z,938.23
2023-01-13T01:07:46.373Z,938.12
2023-01-13T01:07:56.379Z,938.18
2023-01-13T01:08:06.371Z,938.16
2023-01-13T01:08:16.374Z,938.16
2023-01-13T01:08:26.374Z,938.13
2023-01-13T01:08:36.374Z,938.20
2023-01-13T01:08:46.371Z,938.18
2023-01-13T01:08:56.379Z,938.21
2023-01-13T01:09:06.401Z,938.15
2023-01-13T01:09:16.371Z,938.16
2023-01-13T01:09:26.392Z,938.18
2023-01-13T01:09:36.375Z,938.17
2023-01-13T01:09:46.382Z,938.17
2023-01-13T01:09:56.375Z,938.11
2023-01-13T01:10:06.396Z,938.14
2023-01-13T01:10:16.396Z,938.17
2023-01-13T01:10:26.385Z,938.16
2023-01-13T01:10:36.386Z,938.17
2023-01-13T01:10:46.375Z,938.09
2023-01-13T01:10:56.380Z,938.07
2023-01-13T01:11:06.412Z,938.15
2023-01-13T01:11:16.386Z,938.08
2023-01-13T01:11:26.391Z,937.97
2023-01-13T01:11:36.411Z,938.15
2023-01-13T01:11:46.385Z,938.15
2023-01-13T01:11:56.392Z,937.93
2023-01-13T01:12:06.419Z,938.14
2023-01-13T01:12:16.389Z,938.09
2023-01-13T01:12:26.393Z,938.00
2023-01-13T01:12:36.390Z,938.12
2023-01-13T01:12:46.382Z,938.07
2023-01-13T01:12:56.390Z,938.12
2023-01-13T01:13:06.401Z,938.11
2023-01-13T01:13:16.399Z,938.06
2023-01-13T01:13:26.395Z,938.15
2023-01-13T01:13:36.441Z,938.14
2023-01-13T01:13:46.402Z,938.12
2023-01-13T01:13:56.407Z,938.11
2023-01-13T01:14:06.402Z,938.14
2023-01-13T01:14:16.394Z,938.15
2023-01-13T01:14:26.412Z,938.18
2023-01-13T01:14:36.402Z,938.16
2023-01-13T01:14:46.402Z,938.16
2023-01-13T01:14:56.409Z,938.18
2023-01-13T01:15:06.437Z,938.12
2023-01-13T01:15:16.396Z,938.12
2023-01-13T01:15:26.410Z,938.18
2023-01-13T01:15:36.417Z,938.18
2023-01-13T01:15:46.419Z,938.10
2023-01-13T01:15:56.490Z,938.09
2023-01-13T01:16:06.427Z,938.12
2023-01-13T01:16:16.481Z,938.12
2023-01-13T01:16:26.521Z,938.14
2023-01-13T01:16:36.420Z,938.01
2023-01-13T01:16:46.410Z,938.14
2023-01-13T01:16:56.415Z,938.07
2023-01-13T01:17:06.409Z,938.11
2023-01-13T01:17:16.403Z,938.08
2023-01-13T01:17:26.413Z,938.17
2023-01-13T01:17:36.438Z,938.14
2023-01-13T01:17:46.405Z,938.10
2023-01-13T01:17:56.416Z,938.13
2023-01-13T01:18:06.407Z,938.17
2023-01-13T01:18:16.404Z,938.16
2023-01-13T01:18:26.417Z,938.19
2023-01-13T01:18:36.415Z,938.20
2023-01-13T01:18:46.415Z,938.13
2023-01-13T01:18:56.422Z,938.03
2023-01-13T01:19:06.415Z,938.12
2023-01-13T01:19:16.721Z,938.10
2023-01-13T01:19:26.430Z,938.11
2023-01-13T01:19:36.429Z,938.10
2023-01-13T01:19:46.421Z,938.13
2023-01-13T01:19:56.421Z,938.12
2023-01-13T01:20:06.471Z,938.12
2023-01-13T01:20:16.428Z,938.14
2023-01-13T01:20:26.435Z,938.15
2023-01-13T01:20:36.428Z,938.15
2023-01-13T01:20:46.432Z,938.20
2023-01-13T01:20:56.440Z,938.31
2023-01-13T01:21:06.441Z,938.09
2023-01-13T01:21:16.429Z,938.13
2023-01-13T01:21:26.462Z,938.16
2023-01-13T01:21:36.427Z,938.20
2023-01-13T01:21:46.439Z,938.18
2023-01-13T01:21:56.432Z,938.04
2023-01-13T01:22:06.442Z,938.18
2023-01-13T01:22:16.432Z,938.12
2023-01-13T01:22:26.491Z,938.19
2023-01-13T01:22:36.478Z,938.18
2023-01-13T01:22:46.441Z,938.18
2023-01-13T01:22:56.461Z,938.15
2023-01-13T01:23:06.447Z,938.11
2023-01-13T01:23:16.442Z,938.09
2023-01-13T01:23:26.451Z,938.15
2023-01-13T01:23:36.452Z,938.21
2023-01-13T01:23:46.458Z,938.21
2023-01-13T01:23:56.448Z,938.20
2023-01-13T01:24:06.447Z,938.20
2023-01-13T01:24:16.460Z,938.16
2023-01-13T01:24:26.476Z,938.00
2023-01-13T01:24:36.452Z,938.17
2023-01-13T01:24:46.470Z,937.85
2023-01-13T01:24:56.441Z,938.06
2023-01-13T01:25:06.463Z,938.10
2023-01-13T01:25:16.459Z,938.18
2023-01-13T01:25:26.454Z,938.12
2023-01-13T01:25:36.450Z,938.18
2023-01-13T01:25:46.456Z,938.26
2023-01-13T01:25:56.453Z,938.06
2023-01-13T01:26:06.480Z,937.81
2023-01-13T01:26:16.467Z,938.04
2023-01-13T01:26:26.489Z,938.03
2023-01-13T01:26:36.461Z,938.00
2023-01-13T01:26:46.462Z,938.14
2023-01-13T01:26:56.458Z,938.24
2023-01-13T01:27:06.464Z,938.10
2023-01-13T01:27:16.459Z,938.01
2023-01-13T01:27:26.458Z,937.86
2023-01-13T01:27:36.463Z,938.09
2023-01-13T01:27:46.471Z,938.08
2023-01-13T01:27:56.457Z,938.05
2023-01-13T01:28:06.479Z,938.14
2023-01-13T01:28:16.489Z,938.14
2023-01-13T01:28:26.475Z,938.16
2023-01-13T01:28:36.467Z,938.15
2023-01-13T01:28:46.470Z,938.05
2023-01-13T01:28:56.463Z,938.06
2023-01-13T01:29:06.460Z,938.09
2023-01-13T01:29:16.473Z,938.16
2023-01-13T01:29:26.484Z,938.13
2023-01-13T01:29:36.461Z,938.14
2023-01-13T01:29:46.463Z,938.20
2023-01-13T01:29:56.467Z,938.12
2023-01-13T01:30:06.474Z,938.09
2023-01-13T01:30:16.493Z,938.10
2023-01-13T01:30:26.469Z,938.17
2023-01-13T01:30:36.466Z,938.16
2023-01-13T01:30:46.472Z,938.17
2023-01-13T01:30:56.468Z,938.13
2023-01-13T01:31:06.530Z,938.09
2023-01-13T01:31:16.532Z,938.06
2023-01-13T01:31:26.480Z,938.10
2023-01-13T01:31:36.482Z,938.07
2023-01-13T01:31:46.708Z,938.13
2023-01-13T01:31:56.475Z,938.02
2023-01-13T01:32:06.492Z,938.10
2023-01-13T01:32:16.477Z,938.04
2023-01-13T01:32:26.492Z,938.11
2023-01-13T01:32:36.482Z,938.17
2023-01-13T01:32:46.519Z,938.12
2023-01-13T01:32:56.509Z,938.15
2023-01-13T01:33:06.483Z,938.09
2023-01-13T01:33:16.484Z,938.13
2023-01-13T01:33:26.490Z,938.15
2023-01-13T01:33:36.475Z,938.12
2023-01-13T01:33:46.507Z,938.17
2023-01-13T01:33:56.484Z,938.15
2023-01-13T01:34:06.487Z,938.12
2023-01-13T01:34:16.485Z,938.07
2023-01-13T01:34:26.487Z,938.16
2023-01-13T01:34:36.494Z,938.14
2023-01-13T01:34:46.487Z,938.12
2023-01-13T01:34:56.484Z,938.15
2023-01-13T01:35:06.485Z,938.04
2023-01-13T01:35:16.490Z,938.08
2023-01-13T01:35:26.488Z,938.16
2023-01-13T01:35:36.489Z,938.13
2023-01-13T01:35:46.496Z,938.16
2023-01-13T01:35:56.498Z,938.13
2023-01-13T01:36:06.497Z,938.21
2023-01-13T01:36:16.512Z,938.15
2023-01-13T01:36:26.517Z,938.22
2023-01-13T01:36:36.489Z,938.15
2023-01-13T01:36:46.498Z,938.17
2023-01-13T01:36:56.501Z,938.23
2023-01-13T01:37:06.519Z,938.11
2023-01-13T01:37:16.505Z,938.17
2023-01-13T01:37:26.500Z,938.16
2023-01-13T01:37:36.501Z,938.16
2023-01-13T01:37:46.507Z,938.14
2023-01-13T01:37:56.520Z,938.16
2023-01-13T01:38:06.530Z,938.13
2023-01-13T01:38:16.514Z,938.14
2023-01-13T01:38:26.551Z,938.12
2023-01-13T01:38:36.506Z,938.04
2023-01-13T01:38:46.511Z,938.11
2023-01-13T01:38:56.516Z,938.09
2023-01-13T01:39:06.515Z,938.06
2023-01-13T01:39:16.523Z,938.08
2023-01-13T01:39:26.530Z,938.10
2023-01-13T01:39:36.525Z,938.17
2023-01-13T01:39:46.513Z,938.13
2023-01-13T01:39:56.511Z,938.09
2023-01-13T01:40:06.511Z,938.12
2023-01-13T01:40:16.513Z,938.06
2023-01-13T01:40:26.516Z,938.07
2023-01-13T01:40:36.541Z,938.12
2023-01-13T01:40:46.527Z,938.13
2023-01-13T01:40:56.512Z,938.17
2023-01-13T01:41:06.516Z,938.12
2023-01-13T01:41:16.513Z,938.11
2023-01-13T01:41:26.522Z,938.08
2023-01-13T01:41:36.523Z,937.86
2023-01-13T01:41:46.515Z,938.05
2023-01-13T01:41:56.521Z,938.00
2023-01-13T01:42:06.527Z,938.16
2023-01-13T01:42:16.521Z,938.03
2023-01-13T01:42:26.535Z,938.12
2023-01-13T01:42:36.524Z,938.08
2023-01-13T01:42:46.525Z,938.06
2023-01-13T01:42:56.527Z,938.11
2023-01-13T01:43:06.520Z,938.12
2023-01-13T01:43:16.551Z,938.13
2023-01-13T01:43:26.563Z,938.14
2023-01-13T01:43:36.520Z,938.15
2023-01-13T01:43:46.542Z,938.15
2023-01-13T01:43:56.524Z,938.17
2023-01-13T01:44:06.528Z,938.15
2023-01-13T01:44:16.533Z,938.16
2023-01-13T01:44:26.533Z,938.15
2023-01-13T01:44:36.525Z,938.16
2023-01-13T01:44:46.535Z,938.18
2023-01-13T01:44:56.532Z,938.02
2023-01-13T01:45:06.528Z,938.00
2023-01-13T01:45:16.536Z,938.00
2023-01-13T01:45:26.533Z,938.02
2023-01-13T01:45:36.536Z,938.05
2023-01-13T01:45:46.538Z,938.10
2023-01-13T01:45:56.535Z,938.15
2023-01-13T01:46:06.597Z,938.05
2023-01-13T01:46:16.592Z,938.11
2023-01-13T01:46:26.567Z,938.13
2023-01-13T01:46:36.581Z,938.13
2023-01-13T01:46:46.645Z,938.09
2023-01-13T01:46:56.608Z,938.06
2023-01-13T01:47:06.634Z,938.02
2023-01-13T01:47:16.550Z,938.14
2023-01-13T01:47:26.539Z,938.06
2023-01-13T01:47:36.539Z,937.97
2023-01-13T01:47:46.540Z,938.09
2023-01-13T01:47:56.554Z,938.06
2023-01-13T01:48:06.551Z,938.06
2023-01-13T01:48:16.544Z,938.09
2023-01-13T01:48:26.547Z,938.06
2023-01-13T01:48:36.547Z,938.07
2023-01-13T01:48:46.547Z,938.13
2023-01-13T01:48:56.549Z,938.10
2023-01-13T01:49:06.549Z,938.11
2023-01-13T01:49:17.369Z,938.11
2023-01-13T01:49:26.563Z,938.09
2023-01-13T01:49:36.550Z,938.10
2023-01-13T01:49:46.550Z,938.11
2023-01-13T01:49:56.553Z,938.05
2023-01-13T01:50:06.560Z,938.10
2023-01-13T01:50:16.557Z,938.08
2023-01-13T01:50:26.567Z,938.06
2023-01-13T01:50:36.563Z,938.09
2023-01-13T01:50:46.553Z,938.05
2023-01-13T01:50:56.576Z,938.04
2023-01-13T01:51:06.569Z,937.99
2023-01-13T01:51:16.573Z,938.04
2023-01-13T01:51:26.562Z,938.07
2023-01-13T01:51:36.581Z,938.04
2023-01-13T01:51:46.584Z,938.07
2023-01-13T01:51:56.573Z,938.04
2023-01-13T01:52:06.572Z,938.03
2023-01-13T01:52:16.567Z,938.04
2023-01-13T01:52:26.612Z,938.03
2023-01-13T01:52:36.579Z,938.06
2023-01-13T01:52:46.564Z,938.10
2023-01-13T01:52:56.564Z,938.07
2023-01-13T01:53:06.569Z,938.02
2023-01-13T01:53:16.570Z,938.07
2023-01-13T01:53:26.569Z,938.03
2023-01-13T01:53:36.569Z,938.06
2023-01-13T01:53:46.581Z,938.14
2023-01-13T01:53:56.603Z,938.13
2023-01-13T01:54:06.590Z,938.02
2023-01-13T01:54:16.569Z,938.16
2023-01-13T01:54:26.581Z,938.11
2023-01-13T01:54:36.579Z,938.12
2023-01-13T01:54:46.573Z,938.11
2023-01-13T01:54:56.585Z,938.15
2023-01-13T01:55:06.598Z,938.09
2023-01-13T01:55:16.596Z,938.04
2023-01-13T01:55:26.581Z,938.03
2023-01-13T01:55:36.583Z,938.05
2023-01-13T01:55:46.576Z,937.99
2023-01-13T01:55:56.580Z,938.08
2023-01-13T01:56:06.581Z,938.05
2023-01-13T01:56:16.582Z,937.99
2023-01-13T01:56:26.586Z,938.00
2023-01-13T01:56:36.592Z,938.03
2023-01-13T01:56:46.581Z,937.99
2023-01-13T01:56:56.602Z,938.02
2023-01-13T01:57:06.591Z,937.83
2023-01-13T01:57:16.592Z,937.95
2023-01-13T01:57:26.602Z,938.05
2023-01-13T01:57:36.584Z,937.86
2023-01-13T01:57:46.588Z,937.85
2023-01-13T01:57:56.592Z,937.97
2023-01-13T01:58:06.601Z,937.95
2023-01-13T01:58:16.591Z,938.02
2023-01-13T01:58:26.586Z,938.05
2023-01-13T01:58:36.598Z,938.02
2023-01-13T01:58:46.594Z,938.05
2023-01-13T01:58:56.591Z,938.03
2023-01-13T01:59:06.619Z,937.98
2023-01-13T01:59:16.606Z,937.99
2023-01-13T01:59:26.601Z,938.08
2023-01-13T01:59:36.592Z,937.92
2023-01-13T01:59:46.597Z,937.98
2023-01-13T01:59:56.602Z,937.97
2023-01-13T02:00:06.603Z,938.07
2023-01-13T02:00:16.619Z,937.96
2023-01-13T02:00:26.595Z,937.95
2023-01-13T02:00:36.629Z,938.00
2023-01-13T02:00:46.630Z,937.96
2023-01-13T02:00:56.674Z,938.02
2023-01-13T02:01:06.812Z,938.04
2023-01-13T02:01:16.726Z,937.98
2023-01-13T02:01:26.679Z,938.01
2023-01-13T02:01:36.823Z,938.03
2023-01-13T02:01:46.807Z,938.03
2023-01-13T02:01:56.714Z,938.01
2023-01-13T02:02:06.714Z,937.99
2023-01-13T02:02:16.669Z,938.03
2023-01-13T02:02:26.651Z,937.98
2023-01-13T02:02:36.639Z,937.91
2023-01-13T02:02:46.663Z,937.96
2023-01-13T02:02:56.615Z,937.90
2023-01-13T02:03:06.610Z,938.10
2023-01-13T02:03:16.658Z,937.78
2023-01-13T02:03:26.613Z,937.79
2023-01-13T02:03:36.616Z,937.87
2023-01-13T02:03:46.628Z,937.97
2023-01-13T02:03:56.615Z,937.98
2023-01-13T02:04:06.625Z,937.86
2023-01-13T02:04:16.620Z,937.97
2023-01-13T02:04:26.656Z,937.91
2023-01-13T02:04:36.611Z,937.94
2023-01-13T02:04:46.619Z,937.96